Ararat, North Carolina
Current Conditions -  °F | °C
As of 7:35 PM on Monday 22 Dec 2014 (Local Time) from KMWK Reporting Station
Haze Haze  
Wind Chill: 33°   Ceiling: 400
Heat Index: 38°   Visibility: 5mi
Dew Point: 36°   Wind: 6mph
Humidity: 93%   Direction: 40°NE
Pressure: 30.06"   Gusts: NA
Location:  36.4°N, 80.56°W
Report Text: KMWK 230035Z AUTO 04005KT 5SM BR OVC004 03/02 A3006 RMK AO2 T00310020
Loading
Personal Weather Stations






























Interactive Weather Map New forecast layout! Learn more

10-Day Weather Forecast

Advertisements
Track Severe Weather on mobile